sensor_id;sensor_type;location;lat;lon;timestamp;P1;durP1;ratioP1;P2;durP2;ratioP2
7919;SDS011;18778;47.610;9.776;2024-03-29T00:01:17;2.80;;;2.60;;
7919;SDS011;18778;47.610;9.776;2024-03-29T00:03:42;2.30;;;2.20;;
7919;SDS011;18778;47.610;9.776;2024-03-29T00:06:09;2.80;;;2.60;;
7919;SDS011;18778;47.610;9.776;2024-03-29T00:08:34;2.47;;;2.33;;
7919;SDS011;18778;47.610;9.776;2024-03-29T00:11:00;2.10;;;2.00;;
7919;SDS011;18778;47.610;9.776;2024-03-29T00:13:26;3.37;;;2.43;;
7919;SDS011;18778;47.610;9.776;2024-03-29T00:15:51;2.50;;;2.30;;
7919;SDS011;18778;47.610;9.776;2024-03-29T00:18:17;2.27;;;2.17;;
7919;SDS011;18778;47.610;9.776;2024-03-29T00:20:42;2.17;;;2.00;;
7919;SDS011;18778;47.610;9.776;2024-03-29T00:23:08;2.50;;;2.40;;
7919;SDS011;18778;47.610;9.776;2024-03-29T00:25:35;2.47;;;2.37;;
7919;SDS011;18778;47.610;9.776;2024-03-29T00:28:01;2.17;;;2.07;;
7919;SDS011;18778;47.610;9.776;2024-03-29T00:30:28;2.20;;;2.10;;
7919;SDS011;18778;47.610;9.776;2024-03-29T00:32:54;2.90;;;2.80;;
7919;SDS011;18778;47.610;9.776;2024-03-29T00:35:20;2.30;;;2.20;;
7919;SDS011;18778;47.610;9.776;2024-03-29T00:37:48;2.67;;;2.47;;
7919;SDS011;18778;47.610;9.776;2024-03-29T00:40:14;2.47;;;2.10;;
7919;SDS011;18778;47.610;9.776;2024-03-29T00:42:40;2.10;;;1.90;;
7919;SDS011;18778;47.610;9.776;2024-03-29T00:45:06;2.20;;;2.10;;
7919;SDS011;18778;47.610;9.776;2024-03-29T00:47:32;2.23;;;1.97;;
7919;SDS011;18778;47.610;9.776;2024-03-29T00:49:57;2.30;;;2.10;;
7919;SDS011;18778;47.610;9.776;2024-03-29T00:52:23;1.80;;;1.70;;
7919;SDS011;18778;47.610;9.776;2024-03-29T00:54:48;2.10;;;1.90;;
7919;SDS011;18778;47.610;9.776;2024-03-29T00:57:15;2.20;;;2.10;;
7919;SDS011;18778;47.610;9.776;2024-03-29T00:59:41;2.10;;;2.00;;
7919;SDS011;18778;47.610;9.776;2024-03-29T01:02:08;2.40;;;2.03;;
7919;SDS011;18778;47.610;9.776;2024-03-29T01:04:34;1.83;;;1.77;;
7919;SDS011;18778;47.610;9.776;2024-03-29T01:06:59;1.80;;;1.70;;
7919;SDS011;18778;47.610;9.776;2024-03-29T01:09:25;1.70;;;1.60;;
7919;SDS011;18778;47.610;9.776;2024-03-29T01:11:51;1.90;;;1.80;;
7919;SDS011;18778;47.610;9.776;2024-03-29T01:14:17;1.83;;;1.73;;
7919;SDS011;18778;47.610;9.776;2024-03-29T01:16:42;1.87;;;1.87;;
7919;SDS011;18778;47.610;9.776;2024-03-29T01:19:08;2.00;;;1.90;;
7919;SDS011;18778;47.610;9.776;2024-03-29T01:21:35;2.10;;;2.00;;
7919;SDS011;18778;47.610;9.776;2024-03-29T01:24:01;2.07;;;1.97;;
7919;SDS011;18778;47.610;9.776;2024-03-29T01:26:26;2.27;;;2.07;;
7919;SDS011;18778;47.610;9.776;2024-03-29T01:28:52;1.53;;;1.43;;
7919;SDS011;18778;47.610;9.776;2024-03-29T01:31:17;1.70;;;1.60;;
7919;SDS011;18778;47.610;9.776;2024-03-29T01:33:43;1.70;;;1.60;;
7919;SDS011;18778;47.610;9.776;2024-03-29T01:36:09;1.70;;;1.60;;
7919;SDS011;18778;47.610;9.776;2024-03-29T01:38:35;1.77;;;1.67;;
7919;SDS011;18778;47.610;9.776;2024-03-29T01:41:01;1.90;;;1.80;;
7919;SDS011;18778;47.610;9.776;2024-03-29T01:43:27;1.73;;;1.63;;
7919;SDS011;18778;47.610;9.776;2024-03-29T01:45:53;1.90;;;1.80;;
7919;SDS011;18778;47.610;9.776;2024-03-29T01:48:23;1.70;;;1.70;;
7919;SDS011;18778;47.610;9.776;2024-03-29T01:50:50;1.53;;;1.53;;
7919;SDS011;18778;47.610;9.776;2024-03-29T01:53:20;2.10;;;2.00;;
7919;SDS011;18778;47.610;9.776;2024-03-29T01:55:46;1.60;;;1.60;;
7919;SDS011;18778;47.610;9.776;2024-03-29T01:58:12;1.90;;;1.80;;
7919;SDS011;18778;47.610;9.776;2024-03-29T02:00:39;1.93;;;1.83;;
7919;SDS011;18778;47.610;9.776;2024-03-29T02:03:09;1.90;;;1.80;;
7919;SDS011;18778;47.610;9.776;2024-03-29T02:05:38;2.27;;;2.07;;
7919;SDS011;18778;47.610;9.776;2024-03-29T02:08:07;2.17;;;1.80;;
7919;SDS011;18778;47.610;9.776;2024-03-29T02:10:34;1.53;;;1.53;;
7919;SDS011;18778;47.610;9.776;2024-03-29T02:13:00;1.53;;;1.43;;
7919;SDS011;18778;47.610;9.776;2024-03-29T02:15:27;1.70;;;1.60;;
7919;SDS011;18778;47.610;9.776;2024-03-29T02:17:53;2.37;;;2.13;;
7919;SDS011;18778;47.610;9.776;2024-03-29T02:20:19;1.53;;;1.53;;
7919;SDS011;18778;47.610;9.776;2024-03-29T02:22:46;4.20;;;3.20;;
7919;SDS011;18778;47.610;9.776;2024-03-29T02:25:18;2.03;;;1.93;;
7919;SDS011;18778;47.610;9.776;2024-03-29T02:27:44;1.90;;;1.80;;
7919;SDS011;18778;47.610;9.776;2024-03-29T02:30:16;1.50;;;1.43;;
7919;SDS011;18778;47.610;9.776;2024-03-29T02:32:42;2.00;;;1.90;;
7919;SDS011;18778;47.610;9.776;2024-03-29T02:35:08;1.77;;;1.60;;
7919;SDS011;18778;47.610;9.776;2024-03-29T02:37:37;1.80;;;1.70;;
7919;SDS011;18778;47.610;9.776;2024-03-29T02:40:03;1.90;;;1.80;;
7919;SDS011;18778;47.610;9.776;2024-03-29T02:42:30;2.07;;;1.97;;
7919;SDS011;18778;47.610;9.776;2024-03-29T02:44:55;2.03;;;2.00;;
7919;SDS011;18778;47.610;9.776;2024-03-29T02:47:21;2.00;;;1.90;;
7919;SDS011;18778;47.610;9.776;2024-03-29T02:49:47;2.13;;;1.60;;
7919;SDS011;18778;47.610;9.776;2024-03-29T02:52:12;2.50;;;1.90;;
7919;SDS011;18778;47.610;9.776;2024-03-29T02:54:39;1.67;;;1.67;;
7919;SDS011;18778;47.610;9.776;2024-03-29T02:57:05;1.63;;;1.53;;
7919;SDS011;18778;47.610;9.776;2024-03-29T02:59:31;1.90;;;1.80;;
7919;SDS011;18778;47.610;9.776;2024-03-29T03:01:56;1.40;;;1.40;;
7919;SDS011;18778;47.610;9.776;2024-03-29T03:04:22;1.37;;;1.30;;
7919;SDS011;18778;47.610;9.776;2024-03-29T03:06:47;1.63;;;1.40;;
7919;SDS011;18778;47.610;9.776;2024-03-29T03:09:13;1.80;;;1.70;;
7919;SDS011;18778;47.610;9.776;2024-03-29T03:11:57;1.90;;;1.80;;
7919;SDS011;18778;47.610;9.776;2024-03-29T03:14:23;1.80;;;1.70;;
7919;SDS011;18778;47.610;9.776;2024-03-29T03:16:48;1.60;;;1.50;;
7919;SDS011;18778;47.610;9.776;2024-03-29T03:19:14;1.90;;;1.80;;
7919;SDS011;18778;47.610;9.776;2024-03-29T03:21:39;1.53;;;1.43;;
7919;SDS011;18778;47.610;9.776;2024-03-29T03:24:05;1.70;;;1.60;;
7919;SDS011;18778;47.610;9.776;2024-03-29T03:26:30;2.20;;;1.67;;
7919;SDS011;18778;47.610;9.776;2024-03-29T03:28:56;1.57;;;1.50;;
7919;SDS011;18778;47.610;9.776;2024-03-29T03:31:21;1.90;;;1.80;;
7919;SDS011;18778;47.610;9.776;2024-03-29T03:33:47;1.90;;;1.80;;
7919;SDS011;18778;47.610;9.776;2024-03-29T03:36:13;1.63;;;1.63;;
7919;SDS011;18778;47.610;9.776;2024-03-29T03:38:38;2.03;;;1.83;;
7919;SDS011;18778;47.610;9.776;2024-03-29T03:41:04;1.60;;;1.50;;
7919;SDS011;18778;47.610;9.776;2024-03-29T03:43:30;2.13;;;1.93;;
7919;SDS011;18778;47.610;9.776;2024-03-29T03:45:59;1.90;;;1.80;;
7919;SDS011;18778;47.610;9.776;2024-03-29T03:48:26;1.73;;;1.73;;
7919;SDS011;18778;47.610;9.776;2024-03-29T03:50:51;1.73;;;1.63;;
7919;SDS011;18778;47.610;9.776;2024-03-29T03:53:17;2.00;;;1.90;;
7919;SDS011;18778;47.610;9.776;2024-03-29T03:55:42;1.73;;;1.53;;
7919;SDS011;18778;47.610;9.776;2024-03-29T03:58:08;1.90;;;1.80;;
7919;SDS011;18778;47.610;9.776;2024-03-29T04:00:33;1.73;;;1.63;;
7919;SDS011;18778;47.610;9.776;2024-03-29T04:02:59;1.70;;;1.70;;
7919;SDS011;18778;47.610;9.776;2024-03-29T04:05:25;1.90;;;1.80;;
7919;SDS011;18778;47.610;9.776;2024-03-29T04:07:51;1.70;;;1.60;;
7919;SDS011;18778;47.610;9.776;2024-03-29T04:10:17;1.63;;;1.63;;
7919;SDS011;18778;47.610;9.776;2024-03-29T04:12:42;1.80;;;1.80;;
7919;SDS011;18778;47.610;9.776;2024-03-29T04:15:08;1.90;;;1.80;;
7919;SDS011;18778;47.610;9.776;2024-03-29T04:17:34;1.90;;;1.90;;
7919;SDS011;18778;47.610;9.776;2024-03-29T04:20:00;1.83;;;1.73;;
7919;SDS011;18778;47.610;9.776;2024-03-29T04:22:29;2.07;;;1.97;;
7919;SDS011;18778;47.610;9.776;2024-03-29T04:24:55;3.33;;;1.40;;
7919;SDS011;18778;47.610;9.776;2024-03-29T04:27:21;1.83;;;1.73;;
7919;SDS011;18778;47.610;9.776;2024-03-29T04:29:47;1.80;;;1.70;;
7919;SDS011;18778;47.610;9.776;2024-03-29T04:32:16;1.80;;;1.70;;
7919;SDS011;18778;47.610;9.776;2024-03-29T04:34:41;1.90;;;1.80;;
7919;SDS011;18778;47.610;9.776;2024-03-29T04:37:07;1.80;;;1.70;;
7919;SDS011;18778;47.610;9.776;2024-03-29T04:39:32;2.00;;;1.90;;
7919;SDS011;18778;47.610;9.776;2024-03-29T04:41:58;1.97;;;1.87;;
7919;SDS011;18778;47.610;9.776;2024-03-29T04:44:24;2.03;;;1.83;;
7919;SDS011;18778;47.610;9.776;2024-03-29T04:46:51;1.87;;;1.77;;
7919;SDS011;18778;47.610;9.776;2024-03-29T04:49:22;1.90;;;1.80;;
7919;SDS011;18778;47.610;9.776;2024-03-29T04:52:08;3.27;;;1.90;;
7919;SDS011;18778;47.610;9.776;2024-03-29T04:54:34;1.63;;;1.60;;
7919;SDS011;18778;47.610;9.776;2024-03-29T04:57:00;1.77;;;1.67;;
7919;SDS011;18778;47.610;9.776;2024-03-29T04:59:27;1.90;;;1.80;;
7919;SDS011;18778;47.610;9.776;2024-03-29T05:01:53;1.70;;;1.70;;
7919;SDS011;18778;47.610;9.776;2024-03-29T05:04:20;1.80;;;1.70;;
7919;SDS011;18778;47.610;9.776;2024-03-29T05:06:55;1.77;;;1.67;;
7919;SDS011;18778;47.610;9.776;2024-03-29T05:09:21;2.27;;;2.07;;
7919;SDS011;18778;47.610;9.776;2024-03-29T05:11:48;1.80;;;1.70;;
7919;SDS011;18778;47.610;9.776;2024-03-29T05:14:17;2.50;;;1.93;;
7919;SDS011;18778;47.610;9.776;2024-03-29T05:16:45;2.87;;;2.43;;
7919;SDS011;18778;47.610;9.776;2024-03-29T05:19:12;3.67;;;3.03;;
7919;SDS011;18778;47.610;9.776;2024-03-29T05:21:38;5.67;;;3.47;;
7919;SDS011;18778;47.610;9.776;2024-03-29T05:24:05;3.27;;;2.97;;
7919;SDS011;18778;47.610;9.776;2024-03-29T05:26:31;2.00;;;1.90;;
7919;SDS011;18778;47.610;9.776;2024-03-29T05:28:57;2.40;;;2.00;;
7919;SDS011;18778;47.610;9.776;2024-03-29T05:31:23;1.70;;;1.60;;
7919;SDS011;18778;47.610;9.776;2024-03-29T05:33:49;2.70;;;1.90;;
7919;SDS011;18778;47.610;9.776;2024-03-29T05:36:15;3.13;;;1.97;;
7919;SDS011;18778;47.610;9.776;2024-03-29T05:38:41;1.60;;;1.60;;
7919;SDS011;18778;47.610;9.776;2024-03-29T05:41:07;2.03;;;1.93;;
7919;SDS011;18778;47.610;9.776;2024-03-29T05:43:32;1.93;;;1.83;;
7919;SDS011;18778;47.610;9.776;2024-03-29T05:45:58;2.30;;;2.10;;
7919;SDS011;18778;47.610;9.776;2024-03-29T05:48:26;1.93;;;1.53;;
7919;SDS011;18778;47.610;9.776;2024-03-29T05:50:52;2.13;;;1.50;;
7919;SDS011;18778;47.610;9.776;2024-03-29T05:53:17;1.40;;;1.40;;
7919;SDS011;18778;47.610;9.776;2024-03-29T05:55:43;2.67;;;1.70;;
7919;SDS011;18778;47.610;9.776;2024-03-29T05:58:09;2.00;;;1.30;;
7919;SDS011;18778;47.610;9.776;2024-03-29T06:00:34;1.20;;;1.20;;
7919;SDS011;18778;47.610;9.776;2024-03-29T06:03:00;0.90;;;0.90;;
7919;SDS011;18778;47.610;9.776;2024-03-29T06:05:29;1.27;;;0.90;;
7919;SDS011;18778;47.610;9.776;2024-03-29T06:07:54;0.93;;;0.90;;
7919;SDS011;18778;47.610;9.776;2024-03-29T06:10:20;0.90;;;0.90;;
7919;SDS011;18778;47.610;9.776;2024-03-29T06:12:46;1.77;;;0.97;;
7919;SDS011;18778;47.610;9.776;2024-03-29T06:15:11;0.77;;;0.77;;
7919;SDS011;18778;47.610;9.776;2024-03-29T06:17:55;1.27;;;1.27;;
7919;SDS011;18778;47.610;9.776;2024-03-29T06:20:21;0.80;;;0.80;;
7919;SDS011;18778;47.610;9.776;2024-03-29T06:22:46;1.27;;;1.10;;
7919;SDS011;18778;47.610;9.776;2024-03-29T06:25:12;1.13;;;1.13;;
7919;SDS011;18778;47.610;9.776;2024-03-29T06:27:38;0.80;;;0.80;;
7919;SDS011;18778;47.610;9.776;2024-03-29T06:30:04;1.00;;;1.00;;
7919;SDS011;18778;47.610;9.776;2024-03-29T06:32:31;1.30;;;1.30;;
7919;SDS011;18778;47.610;9.776;2024-03-29T06:34:57;1.03;;;1.03;;
7919;SDS011;18778;47.610;9.776;2024-03-29T06:37:23;1.40;;;1.30;;
7919;SDS011;18778;47.610;9.776;2024-03-29T06:39:50;1.20;;;1.20;;
7919;SDS011;18778;47.610;9.776;2024-03-29T06:42:16;1.33;;;1.33;;
7919;SDS011;18778;47.610;9.776;2024-03-29T06:44:42;1.27;;;1.17;;
7919;SDS011;18778;47.610;9.776;2024-03-29T06:47:08;1.57;;;1.50;;
7919;SDS011;18778;47.610;9.776;2024-03-29T06:49:34;1.33;;;1.20;;
7919;SDS011;18778;47.610;9.776;2024-03-29T06:52:00;1.50;;;1.40;;
7919;SDS011;18778;47.610;9.776;2024-03-29T06:54:26;1.10;;;1.10;;
7919;SDS011;18778;47.610;9.776;2024-03-29T06:56:53;1.10;;;1.10;;
7919;SDS011;18778;47.610;9.776;2024-03-29T06:59:19;1.50;;;1.40;;
7919;SDS011;18778;47.610;9.776;2024-03-29T07:01:45;1.40;;;1.30;;
7919;SDS011;18778;47.610;9.776;2024-03-29T07:04:12;2.10;;;1.37;;
7919;SDS011;18778;47.610;9.776;2024-03-29T07:06:38;1.30;;;1.30;;
7919;SDS011;18778;47.610;9.776;2024-03-29T07:09:04;1.60;;;1.50;;
7919;SDS011;18778;47.610;9.776;2024-03-29T07:11:31;2.67;;;1.70;;
7919;SDS011;18778;47.610;9.776;2024-03-29T07:13:56;1.87;;;1.63;;
7919;SDS011;18778;47.610;9.776;2024-03-29T07:16:22;1.63;;;1.53;;
7919;SDS011;18778;47.610;9.776;2024-03-29T07:18:48;1.40;;;1.30;;
7919;SDS011;18778;47.610;9.776;2024-03-29T07:21:13;1.57;;;1.47;;
7919;SDS011;18778;47.610;9.776;2024-03-29T07:23:39;1.50;;;1.40;;
7919;SDS011;18778;47.610;9.776;2024-03-29T07:26:05;1.40;;;1.40;;
7919;SDS011;18778;47.610;9.776;2024-03-29T07:28:31;1.53;;;1.50;;
7919;SDS011;18778;47.610;9.776;2024-03-29T07:30:57;1.63;;;1.53;;
7919;SDS011;18778;47.610;9.776;2024-03-29T07:33:23;1.37;;;1.33;;
7919;SDS011;18778;47.610;9.776;2024-03-29T07:35:51;1.70;;;1.60;;
7919;SDS011;18778;47.610;9.776;2024-03-29T07:38:18;1.60;;;1.50;;
7919;SDS011;18778;47.610;9.776;2024-03-29T07:40:45;1.27;;;1.20;;
7919;SDS011;18778;47.610;9.776;2024-03-29T07:43:12;1.60;;;1.50;;
7919;SDS011;18778;47.610;9.776;2024-03-29T07:45:42;2.20;;;1.27;;
7919;SDS011;18778;47.610;9.776;2024-03-29T07:48:11;1.30;;;1.30;;
7919;SDS011;18778;47.610;9.776;2024-03-29T07:50:38;1.50;;;1.40;;
7919;SDS011;18778;47.610;9.776;2024-03-29T07:53:04;1.40;;;1.30;;
7919;SDS011;18778;47.610;9.776;2024-03-29T07:55:30;1.37;;;1.20;;
7919;SDS011;18778;47.610;9.776;2024-03-29T07:57:55;1.50;;;1.40;;
7919;SDS011;18778;47.610;9.776;2024-03-29T08:00:21;1.03;;;1.03;;
7919;SDS011;18778;47.610;9.776;2024-03-29T08:02:47;1.80;;;1.70;;
7919;SDS011;18778;47.610;9.776;2024-03-29T08:05:13;1.20;;;1.20;;
7919;SDS011;18778;47.610;9.776;2024-03-29T08:07:39;3.40;;;1.67;;
7919;SDS011;18778;47.610;9.776;2024-03-29T08:10:04;1.20;;;1.20;;
7919;SDS011;18778;47.610;9.776;2024-03-29T08:12:31;1.83;;;1.37;;
7919;SDS011;18778;47.610;9.776;2024-03-29T08:14:57;1.43;;;1.33;;
7919;SDS011;18778;47.610;9.776;2024-03-29T08:17:23;0.97;;;0.97;;
7919;SDS011;18778;47.610;9.776;2024-03-29T08:19:50;1.43;;;1.10;;
7919;SDS011;18778;47.610;9.776;2024-03-29T08:22:15;1.73;;;1.20;;
7919;SDS011;18778;47.610;9.776;2024-03-29T08:24:41;1.33;;;1.23;;
7919;SDS011;18778;47.610;9.776;2024-03-29T08:27:07;1.50;;;1.40;;
7919;SDS011;18778;47.610;9.776;2024-03-29T08:29:32;1.63;;;1.30;;
7919;SDS011;18778;47.610;9.776;2024-03-29T08:31:58;1.37;;;1.27;;
7919;SDS011;18778;47.610;9.776;2024-03-29T08:34:23;1.17;;;1.13;;
7919;SDS011;18778;47.610;9.776;2024-03-29T08:36:49;1.17;;;1.10;;
7919;SDS011;18778;47.610;9.776;2024-03-29T08:39:15;1.30;;;1.30;;
7919;SDS011;18778;47.610;9.776;2024-03-29T08:41:41;2.87;;;1.60;;
7919;SDS011;18778;47.610;9.776;2024-03-29T08:44:07;1.70;;;1.60;;
7919;SDS011;18778;47.610;9.776;2024-03-29T08:46:33;1.30;;;1.10;;
7919;SDS011;18778;47.610;9.776;2024-03-29T08:48:58;1.10;;;1.00;;
7919;SDS011;18778;47.610;9.776;2024-03-29T08:51:24;3.27;;;1.50;;
7919;SDS011;18778;47.610;9.776;2024-03-29T08:53:49;1.27;;;1.17;;
7919;SDS011;18778;47.610;9.776;2024-03-29T08:56:15;1.27;;;1.17;;
7919;SDS011;18778;47.610;9.776;2024-03-29T08:58:41;1.20;;;1.10;;
7919;SDS011;18778;47.610;9.776;2024-03-29T09:01:06;1.10;;;1.10;;
7919;SDS011;18778;47.610;9.776;2024-03-29T09:03:32;0.90;;;0.90;;
7919;SDS011;18778;47.610;9.776;2024-03-29T09:05:58;1.17;;;0.70;;
7919;SDS011;18778;47.610;9.776;2024-03-29T09:08:23;0.80;;;0.80;;
7919;SDS011;18778;47.610;9.776;2024-03-29T09:10:49;0.97;;;0.80;;
7919;SDS011;18778;47.610;9.776;2024-03-29T09:13:15;0.73;;;0.70;;
7919;SDS011;18778;47.610;9.776;2024-03-29T09:15:40;0.80;;;0.80;;
7919;SDS011;18778;47.610;9.776;2024-03-29T09:18:07;0.60;;;0.60;;
7919;SDS011;18778;47.610;9.776;2024-03-29T09:20:42;0.70;;;0.70;;
7919;SDS011;18778;47.610;9.776;2024-03-29T09:23:11;0.57;;;0.57;;
7919;SDS011;18778;47.610;9.776;2024-03-29T09:25:40;0.53;;;0.47;;
7919;SDS011;18778;47.610;9.776;2024-03-29T09:28:06;0.60;;;0.60;;
7919;SDS011;18778;47.610;9.776;2024-03-29T09:30:34;1.70;;;0.80;;
7919;SDS011;18778;47.610;9.776;2024-03-29T09:33:00;0.70;;;0.70;;
7919;SDS011;18778;47.610;9.776;2024-03-29T09:35:28;0.80;;;0.80;;
7919;SDS011;18778;47.610;9.776;2024-03-29T09:37:53;0.60;;;0.60;;
7919;SDS011;18778;47.610;9.776;2024-03-29T09:40:19;0.70;;;0.63;;
7919;SDS011;18778;47.610;9.776;2024-03-29T09:42:45;0.60;;;0.60;;
7919;SDS011;18778;47.610;9.776;2024-03-29T09:45:11;1.03;;;0.50;;
7919;SDS011;18778;47.610;9.776;2024-03-29T09:47:38;6.60;;;0.70;;
7919;SDS011;18778;47.610;9.776;2024-03-29T09:50:05;0.40;;;0.40;;
7919;SDS011;18778;47.610;9.776;2024-03-29T09:52:32;2.43;;;0.60;;
7919;SDS011;18778;47.610;9.776;2024-03-29T09:54:58;0.80;;;0.60;;
7919;SDS011;18778;47.610;9.776;2024-03-29T09:57:25;0.50;;;0.50;;
7919;SDS011;18778;47.610;9.776;2024-03-29T09:59:54;1.63;;;0.70;;
7919;SDS011;18778;47.610;9.776;2024-03-29T10:02:21;0.53;;;0.50;;
7919;SDS011;18778;47.610;9.776;2024-03-29T10:04:51;1.43;;;0.50;;
7919;SDS011;18778;47.610;9.776;2024-03-29T10:07:18;0.87;;;0.40;;
7919;SDS011;18778;47.610;9.776;2024-03-29T10:09:45;0.50;;;0.50;;
7919;SDS011;18778;47.610;9.776;2024-03-29T10:12:10;4.50;;;0.50;;
7919;SDS011;18778;47.610;9.776;2024-03-29T10:14:49;0.40;;;0.40;;
7919;SDS011;18778;47.610;9.776;2024-03-29T10:17:17;1.60;;;0.50;;
7919;SDS011;18778;47.610;9.776;2024-03-29T10:19:43;0.47;;;0.47;;
7919;SDS011;18778;47.610;9.776;2024-03-29T10:22:09;0.50;;;0.50;;
7919;SDS011;18778;47.610;9.776;2024-03-29T10:24:34;0.53;;;0.53;;
7919;SDS011;18778;47.610;9.776;2024-03-29T10:27:01;0.50;;;0.50;;
7919;SDS011;18778;47.610;9.776;2024-03-29T10:29:28;0.53;;;0.53;;
7919;SDS011;18778;47.610;9.776;2024-03-29T10:31:57;1.50;;;0.50;;
7919;SDS011;18778;47.610;9.776;2024-03-29T10:34:24;0.50;;;0.50;;
7919;SDS011;18778;47.610;9.776;2024-03-29T10:36:50;0.40;;;0.40;;
7919;SDS011;18778;47.610;9.776;2024-03-29T10:39:16;0.40;;;0.40;;
7919;SDS011;18778;47.610;9.776;2024-03-29T10:41:43;0.57;;;0.40;;
7919;SDS011;18778;47.610;9.776;2024-03-29T10:44:11;0.60;;;0.60;;
7919;SDS011;18778;47.610;9.776;2024-03-29T10:46:38;0.60;;;0.60;;
7919;SDS011;18778;47.610;9.776;2024-03-29T10:49:10;0.50;;;0.50;;
7919;SDS011;18778;47.610;9.776;2024-03-29T10:51:39;1.63;;;0.43;;
7919;SDS011;18778;47.610;9.776;2024-03-29T10:54:09;0.73;;;0.47;;
7919;SDS011;18778;47.610;9.776;2024-03-29T10:56:35;0.40;;;0.40;;
7919;SDS011;18778;47.610;9.776;2024-03-29T10:59:03;1.20;;;0.40;;
7919;SDS011;18778;47.610;9.776;2024-03-29T11:01:37;0.30;;;0.30;;
7919;SDS011;18778;47.610;9.776;2024-03-29T11:04:09;0.40;;;0.40;;
7919;SDS011;18778;47.610;9.776;2024-03-29T11:06:39;0.60;;;0.40;;
7919;SDS011;18778;47.610;9.776;2024-03-29T11:09:06;2.17;;;0.30;;
7919;SDS011;18778;47.610;9.776;2024-03-29T11:11:38;0.50;;;0.30;;
7919;SDS011;18778;47.610;9.776;2024-03-29T11:14:07;0.20;;;0.20;;
7919;SDS011;18778;47.610;9.776;2024-03-29T11:16:39;0.20;;;0.20;;
7919;SDS011;18778;47.610;9.776;2024-03-29T11:19:10;3.63;;;0.30;;
7919;SDS011;18778;47.610;9.776;2024-03-29T11:21:40;0.27;;;0.27;;
7919;SDS011;18778;47.610;9.776;2024-03-29T11:24:07;0.20;;;0.20;;
7919;SDS011;18778;47.610;9.776;2024-03-29T11:26:35;0.30;;;0.30;;
7919;SDS011;18778;47.610;9.776;2024-03-29T11:29:01;0.33;;;0.33;;
7919;SDS011;18778;47.610;9.776;2024-03-29T11:31:27;0.20;;;0.20;;
7919;SDS011;18778;47.610;9.776;2024-03-29T11:33:52;0.30;;;0.30;;
7919;SDS011;18778;47.610;9.776;2024-03-29T11:36:22;0.30;;;0.30;;
7919;SDS011;18778;47.610;9.776;2024-03-29T11:38:50;1.43;;;0.20;;
7919;SDS011;18778;47.610;9.776;2024-03-29T11:41:17;0.27;;;0.20;;
7919;SDS011;18778;47.610;9.776;2024-03-29T11:43:46;0.20;;;0.20;;
7919;SDS011;18778;47.610;9.776;2024-03-29T11:46:13;0.60;;;0.27;;
7919;SDS011;18778;47.610;9.776;2024-03-29T11:48:40;0.30;;;0.30;;
7919;SDS011;18778;47.610;9.776;2024-03-29T11:51:06;1.60;;;0.20;;
7919;SDS011;18778;47.610;9.776;2024-03-29T11:53:36;0.20;;;0.20;;
7919;SDS011;18778;47.610;9.776;2024-03-29T11:56:03;0.60;;;0.30;;
7919;SDS011;18778;47.610;9.776;2024-03-29T11:58:29;3.47;;;0.30;;
7919;SDS011;18778;47.610;9.776;2024-03-29T12:00:57;0.30;;;0.30;;
7919;SDS011;18778;47.610;9.776;2024-03-29T12:03:27;0.93;;;0.30;;
7919;SDS011;18778;47.610;9.776;2024-03-29T12:05:54;1.00;;;0.40;;
7919;SDS011;18778;47.610;9.776;2024-03-29T12:08:28;0.93;;;0.30;;
7919;SDS011;18778;47.610;9.776;2024-03-29T12:10:58;1.47;;;0.30;;
7919;SDS011;18778;47.610;9.776;2024-03-29T12:13:24;0.20;;;0.20;;
7919;SDS011;18778;47.610;9.776;2024-03-29T12:15:50;0.30;;;0.30;;
7919;SDS011;18778;47.610;9.776;2024-03-29T12:18:16;0.37;;;0.20;;
7919;SDS011;18778;47.610;9.776;2024-03-29T12:20:44;0.50;;;0.30;;
7919;SDS011;18778;47.610;9.776;2024-03-29T12:23:11;1.30;;;0.30;;
7919;SDS011;18778;47.610;9.776;2024-03-29T12:25:40;1.50;;;0.30;;
7919;SDS011;18778;47.610;9.776;2024-03-29T12:28:06;0.30;;;0.30;;
7919;SDS011;18778;47.610;9.776;2024-03-29T12:30:32;0.30;;;0.30;;
7919;SDS011;18778;47.610;9.776;2024-03-29T12:35:31;0.50;;;0.30;;
7919;SDS011;18778;47.610;9.776;2024-03-29T12:38:01;1.77;;;0.30;;
7919;SDS011;18778;47.610;9.776;2024-03-29T12:40:28;0.33;;;0.20;;
7919;SDS011;18778;47.610;9.776;2024-03-29T12:42:57;0.50;;;0.40;;
7919;SDS011;18778;47.610;9.776;2024-03-29T12:45:23;0.83;;;0.30;;
7919;SDS011;18778;47.610;9.776;2024-03-29T12:47:51;0.30;;;0.23;;
7919;SDS011;18778;47.610;9.776;2024-03-29T12:50:27;0.40;;;0.30;;
7919;SDS011;18778;47.610;9.776;2024-03-29T12:52:55;0.53;;;0.30;;
7919;SDS011;18778;47.610;9.776;2024-03-29T12:55:26;1.90;;;0.30;;
7919;SDS011;18778;47.610;9.776;2024-03-29T12:57:55;0.63;;;0.30;;
7919;SDS011;18778;47.610;9.776;2024-03-29T13:00:21;2.70;;;0.60;;
7919;SDS011;18778;47.610;9.776;2024-03-29T13:02:47;0.40;;;0.40;;
7919;SDS011;18778;47.610;9.776;2024-03-29T13:05:13;0.47;;;0.30;;
7919;SDS011;18778;47.610;9.776;2024-03-29T13:07:39;0.40;;;0.40;;
7919;SDS011;18778;47.610;9.776;2024-03-29T13:10:05;0.40;;;0.30;;
7919;SDS011;18778;47.610;9.776;2024-03-29T13:12:36;2.07;;;0.40;;
7919;SDS011;18778;47.610;9.776;2024-03-29T13:15:03;0.40;;;0.40;;
7919;SDS011;18778;47.610;9.776;2024-03-29T13:17:39;0.60;;;0.40;;
7919;SDS011;18778;47.610;9.776;2024-03-29T13:20:05;0.60;;;0.60;;
7919;SDS011;18778;47.610;9.776;2024-03-29T13:22:31;0.50;;;0.50;;
7919;SDS011;18778;47.610;9.776;2024-03-29T13:24:57;1.33;;;0.40;;
7919;SDS011;18778;47.610;9.776;2024-03-29T13:27:22;1.43;;;0.50;;
7919;SDS011;18778;47.610;9.776;2024-03-29T13:29:48;3.67;;;0.47;;
7919;SDS011;18778;47.610;9.776;2024-03-29T13:32:14;2.23;;;0.70;;
7919;SDS011;18778;47.610;9.776;2024-03-29T13:34:39;0.30;;;0.30;;
7919;SDS011;18778;47.610;9.776;2024-03-29T13:37:05;1.33;;;0.40;;
7919;SDS011;18778;47.610;9.776;2024-03-29T13:39:31;0.30;;;0.30;;
7919;SDS011;18778;47.610;9.776;2024-03-29T13:41:57;0.50;;;0.40;;
7919;SDS011;18778;47.610;9.776;2024-03-29T13:44:23;0.30;;;0.30;;
7919;SDS011;18778;47.610;9.776;2024-03-29T13:46:49;1.03;;;0.50;;
7919;SDS011;18778;47.610;9.776;2024-03-29T13:49:16;1.03;;;0.50;;
7919;SDS011;18778;47.610;9.776;2024-03-29T13:51:45;1.07;;;0.60;;
7919;SDS011;18778;47.610;9.776;2024-03-29T13:54:11;3.90;;;0.80;;
7919;SDS011;18778;47.610;9.776;2024-03-29T13:56:37;3.77;;;1.00;;
7919;SDS011;18778;47.610;9.776;2024-03-29T13:59:02;3.70;;;0.70;;
7919;SDS011;18778;47.610;9.776;2024-03-29T14:01:28;6.00;;;1.10;;
7919;SDS011;18778;47.610;9.776;2024-03-29T14:03:53;6.90;;;1.17;;
7919;SDS011;18778;47.610;9.776;2024-03-29T14:06:19;10.47;;;1.50;;
7919;SDS011;18778;47.610;9.776;2024-03-29T14:08:45;11.27;;;2.13;;
7919;SDS011;18778;47.610;9.776;2024-03-29T14:11:11;10.13;;;1.60;;
7919;SDS011;18778;47.610;9.776;2024-03-29T14:13:36;14.77;;;2.00;;
7919;SDS011;18778;47.610;9.776;2024-03-29T14:16:02;11.13;;;2.77;;
7919;SDS011;18778;47.610;9.776;2024-03-29T14:18:28;13.10;;;2.13;;
7919;SDS011;18778;47.610;9.776;2024-03-29T14:20:55;21.93;;;3.30;;
7919;SDS011;18778;47.610;9.776;2024-03-29T14:23:22;23.97;;;3.47;;
7919;SDS011;18778;47.610;9.776;2024-03-29T14:25:50;26.97;;;3.30;;
7919;SDS011;18778;47.610;9.776;2024-03-29T14:28:16;19.20;;;3.53;;
7919;SDS011;18778;47.610;9.776;2024-03-29T14:30:41;24.53;;;4.33;;
7919;SDS011;18778;47.610;9.776;2024-03-29T14:33:07;38.10;;;6.27;;
7919;SDS011;18778;47.610;9.776;2024-03-29T14:35:36;53.73;;;7.20;;
7919;SDS011;18778;47.610;9.776;2024-03-29T14:38:01;40.60;;;6.57;;
7919;SDS011;18778;47.610;9.776;2024-03-29T14:40:27;48.50;;;6.60;;
7919;SDS011;18778;47.610;9.776;2024-03-29T14:42:53;62.20;;;8.37;;
7919;SDS011;18778;47.610;9.776;2024-03-29T14:45:24;58.97;;;7.80;;
7919;SDS011;18778;47.610;9.776;2024-03-29T14:47:50;61.60;;;7.60;;
7919;SDS011;18778;47.610;9.776;2024-03-29T14:50:15;57.47;;;7.73;;
7919;SDS011;18778;47.610;9.776;2024-03-29T14:52:43;54.57;;;8.70;;
7919;SDS011;18778;47.610;9.776;2024-03-29T14:55:08;56.10;;;6.90;;
7919;SDS011;18778;47.610;9.776;2024-03-29T14:57:34;58.00;;;9.37;;
7919;SDS011;18778;47.610;9.776;2024-03-29T14:59:59;59.90;;;8.17;;